Time;durP1;ratioP1;P1;durP2;ratioP2;P2;SDS_P1;SDS_P2;PMS_P1;PMS_P2;Temp;Humidity;BMP_temperature;BMP_pressure;BME280_temperature;BME280_humidity;BME280_pressure;Samples;Min_cycle;Max_cycle;Signal;HPM_P1;HPM_P2
2024/03/17 00:01:31;;;;;;;;;;;10.10;85.00;;;;;;5000435;28;82338;-48
2024/03/17 00:03:57;;;;;;;;;;;10.00;84.90;;;;;;4997115;28;81945;-50
2024/03/17 00:06:22;;;;;;;;;;;10.00;84.90;;;;;;4995913;28;83886;-49
2024/03/17 00:08:48;;;;;;;;;;;10.10;85.00;;;;;;4999297;28;81977;-49
2024/03/17 00:11:14;;;;;;;;;;;10.00;84.90;;;;;;4998359;28;83474;-49
2024/03/17 00:13:39;;;;;;;;;;;10.00;85.00;;;;;;4993420;28;81169;-50
2024/03/17 00:16:05;;;;;;;;;;;10.00;85.00;;;;;;5001121;28;82152;-49
2024/03/17 00:18:30;;;;;;;;;;;10.00;84.90;;;;;;4992455;28;82768;-48
2024/03/17 00:20:56;;;;;;;;;;;10.00;85.00;;;;;;4998222;28;83613;-50
2024/03/17 00:23:22;;;;;;;;;;;10.00;85.00;;;;;;4995235;28;82270;-48
2024/03/17 00:25:47;;;;;;;;;;;10.00;85.00;;;;;;4999650;28;82924;-50
2024/03/17 00:28:13;;;;;;;;;;;10.00;84.90;;;;;;4999246;28;81986;-49
2024/03/17 00:30:38;;;;;;;;;;;10.00;84.90;;;;;;4998963;28;82455;-50
2024/03/17 00:33:04;;;;;;;;;;;10.00;85.00;;;;;;4998560;28;82296;-48
2024/03/17 00:35:30;;;;;;;;;;;10.00;85.00;;;;;;4997848;28;82017;-48
2024/03/17 00:37:56;;;;;;;;;;;10.00;84.90;;;;;;4999646;28;81938;-48
2024/03/17 00:40:21;;;;;;;;;;;10.00;84.90;;;;;;4991915;28;81837;-47
2024/03/17 00:42:47;;;;;;;;;;;10.00;84.90;;;;;;4997731;28;82004;-51
2024/03/17 00:45:13;;;;;;;;;;;10.00;85.00;;;;;;4998030;28;84648;-48
2024/03/17 00:47:39;;;;;;;;;;;10.00;85.00;;;;;;4995672;28;83082;-49
2024/03/17 00:50:06;;;;;;;;;;;10.00;84.90;;;;;;5002766;28;82737;-49
2024/03/17 00:52:32;;;;;;;;;;;10.00;84.90;;;;;;5001013;28;81988;-49
2024/03/17 00:54:57;;;;;;;;;;;9.90;84.90;;;;;;4998314;28;82241;-48
2024/03/17 00:57:23;;;;;;;;;;;9.90;84.90;;;;;;4996189;28;83669;-50
2024/03/17 00:59:48;;;;;;;;;;;9.90;84.90;;;;;;4996403;28;81946;-49
2024/03/17 01:02:17;;;;;;;;;;;9.90;84.90;;;;;;4995577;28;81665;-50
2024/03/17 01:04:43;;;;;;;;;;;9.90;85.00;;;;;;4995368;28;83412;-48
2024/03/17 01:07:09;;;;;;;;;;;9.90;85.00;;;;;;4994167;28;82000;-49
2024/03/17 01:09:34;;;;;;;;;;;9.90;84.90;;;;;;4998614;28;82836;-49
2024/03/17 01:12:00;;;;;;;;;;;9.90;84.90;;;;;;4997844;28;81916;-51
2024/03/17 01:14:26;;;;;;;;;;;9.90;84.90;;;;;;4994477;28;81879;-49
2024/03/17 01:16:53;;;;;;;;;;;9.90;84.90;;;;;;4995726;28;82385;-49
2024/03/17 01:19:18;;;;;;;;;;;9.90;85.00;;;;;;4999379;28;82732;-49
2024/03/17 01:21:44;;;;;;;;;;;9.90;85.00;;;;;;4995571;28;82407;-49
2024/03/17 01:24:09;;;;;;;;;;;9.90;85.00;;;;;;4997725;28;82034;-51
2024/03/17 01:26:35;;;;;;;;;;;9.90;84.90;;;;;;4998838;28;81058;-50
2024/03/17 01:29:01;;;;;;;;;;;9.80;84.90;;;;;;4997925;28;81941;-49
2024/03/17 01:31:27;;;;;;;;;;;9.80;85.00;;;;;;5003908;28;83601;-48
2024/03/17 01:33:53;;;;;;;;;;;9.80;84.90;;;;;;4990922;28;84351;-49
2024/03/17 01:36:18;;;;;;;;;;;9.80;85.00;;;;;;5000043;28;82644;-49
2024/03/17 01:38:44;;;;;;;;;;;9.80;84.90;;;;;;4996872;28;82604;-48
2024/03/17 01:41:10;;;;;;;;;;;9.80;84.90;;;;;;4993103;28;82783;-50
2024/03/17 01:43:35;;;;;;;;;;;9.80;84.90;;;;;;4994336;28;82585;-49
2024/03/17 01:46:02;;;;;;;;;;;9.80;84.90;;;;;;5000345;28;81969;-49
2024/03/17 01:48:28;;;;;;;;;;;9.80;84.90;;;;;;4996363;28;83310;-50
2024/03/17 01:50:55;;;;;;;;;;;9.80;84.90;;;;;;4998577;28;81282;-49
2024/03/17 01:53:21;;;;;;;;;;;9.80;84.90;;;;;;5006631;28;82057;-49
2024/03/17 01:55:47;;;;;;;;;;;9.80;84.90;;;;;;4993983;28;83047;-48
2024/03/17 01:58:13;;;;;;;;;;;9.80;84.90;;;;;;4995813;28;83028;-49
2024/03/17 02:00:39;;;;;;;;;;;9.80;84.90;;;;;;4997290;28;83841;-48
2024/03/17 02:03:05;;;;;;;;;;;9.80;84.90;;;;;;4994585;28;82605;-49
2024/03/17 02:05:31;;;;;;;;;;;9.70;84.90;;;;;;4994326;28;81893;-50
2024/03/17 02:07:57;;;;;;;;;;;9.70;84.80;;;;;;4994699;28;82813;-50
2024/03/17 02:10:22;;;;;;;;;;;9.70;84.90;;;;;;4994458;28;82144;-49
2024/03/17 02:12:48;;;;;;;;;;;9.70;84.80;;;;;;4997711;28;81969;-48
2024/03/17 02:15:14;;;;;;;;;;;9.70;84.90;;;;;;5004510;28;81342;-51
2024/03/17 02:17:39;;;;;;;;;;;9.70;84.90;;;;;;4998176;28;82108;-50
2024/03/17 02:20:07;;;;;;;;;;;9.70;84.80;;;;;;5003139;28;82415;-49
2024/03/17 02:22:36;;;;;;;;;;;9.70;85.00;;;;;;4999349;28;84511;-49
2024/03/17 02:25:02;;;;;;;;;;;9.70;84.80;;;;;;4993144;28;81829;-50
2024/03/17 02:27:28;;;;;;;;;;;9.70;84.90;;;;;;4998653;28;81892;-48
2024/03/17 02:29:53;;;;;;;;;;;9.70;84.90;;;;;;4998360;28;82428;-48
2024/03/17 02:32:22;;;;;;;;;;;9.70;84.80;;;;;;4995014;28;82788;-50
2024/03/17 02:34:48;;;;;;;;;;;9.70;84.90;;;;;;4996937;28;82938;-48
2024/03/17 02:37:13;;;;;;;;;;;9.70;84.80;;;;;;5000879;28;82461;-49
2024/03/17 02:39:39;;;;;;;;;;;9.60;84.90;;;;;;4997423;28;81720;-50
2024/03/17 02:42:06;;;;;;;;;;;9.60;84.80;;;;;;4998069;28;82516;-50
2024/03/17 02:44:32;;;;;;;;;;;9.60;84.80;;;;;;4997271;28;81959;-48
2024/03/17 02:46:58;;;;;;;;;;;9.60;84.90;;;;;;4997466;28;82847;-49
2024/03/17 02:49:24;;;;;;;;;;;9.60;84.80;;;;;;4993367;28;83455;-48
2024/03/17 02:51:49;;;;;;;;;;;9.60;84.80;;;;;;4993209;28;81899;-49
2024/03/17 02:54:15;;;;;;;;;;;9.60;84.80;;;;;;4995962;28;82216;-47
2024/03/17 02:56:41;;;;;;;;;;;9.60;84.90;;;;;;4997394;28;83560;-51
2024/03/17 02:59:07;;;;;;;;;;;9.60;84.90;;;;;;5005781;28;81900;-49
2024/03/17 03:01:32;;;;;;;;;;;9.50;84.80;;;;;;4998967;28;82322;-50
2024/03/17 03:03:58;;;;;;;;;;;9.50;84.70;;;;;;4995682;28;81316;-49
2024/03/17 03:06:25;;;;;;;;;;;9.50;84.80;;;;;;4997318;28;82339;-52
2024/03/17 03:08:50;;;;;;;;;;;9.50;84.70;;;;;;4994715;28;83543;-49
2024/03/17 03:11:16;;;;;;;;;;;9.60;84.90;;;;;;4996617;28;82915;-49
2024/03/17 03:13:42;;;;;;;;;;;9.50;84.80;;;;;;4994365;28;81996;-48
2024/03/17 03:16:12;;;;;;;;;;;9.50;84.80;;;;;;4993995;28;83827;-50
2024/03/17 03:18:38;;;;;;;;;;;9.50;84.80;;;;;;4997598;28;82017;-50
2024/03/17 03:21:05;;;;;;;;;;;9.50;84.80;;;;;;4997543;28;83401;-49
2024/03/17 03:23:31;;;;;;;;;;;9.50;84.90;;;;;;4995196;28;82708;-49
2024/03/17 03:25:57;;;;;;;;;;;9.50;84.90;;;;;;4993539;28;82908;-49
2024/03/17 03:28:23;;;;;;;;;;;9.40;84.80;;;;;;4996533;28;81619;-47
2024/03/17 03:30:49;;;;;;;;;;;9.50;84.90;;;;;;4994332;28;82027;-49
2024/03/17 03:33:14;;;;;;;;;;;9.40;84.80;;;;;;4992814;28;82053;-49
2024/03/17 03:35:40;;;;;;;;;;;9.40;84.80;;;;;;5000579;28;84190;-49
2024/03/17 03:38:05;;;;;;;;;;;9.50;84.90;;;;;;4998559;28;81841;-49
2024/03/17 03:40:32;;;;;;;;;;;9.50;84.90;;;;;;5003611;28;82984;-49
2024/03/17 03:42:58;;;;;;;;;;;9.40;84.80;;;;;;4999206;28;82383;-49
2024/03/17 03:45:23;;;;;;;;;;;9.40;84.80;;;;;;4992021;28;82059;-49
2024/03/17 03:47:49;;;;;;;;;;;9.40;84.80;;;;;;4999350;28;82540;-48
2024/03/17 03:50:15;;;;;;;;;;;9.40;84.80;;;;;;4998372;28;82025;-48
2024/03/17 03:52:45;;;;;;;;;;;9.40;84.80;;;;;;4998221;28;82449;-48
2024/03/17 03:55:14;;;;;;;;;;;9.40;84.80;;;;;;4998759;28;82768;-48
2024/03/17 03:57:39;;;;;;;;;;;9.40;84.90;;;;;;4997215;28;82027;-49
2024/03/17 04:00:21;;;;;;;;;;;9.30;84.90;;;;;;4997729;28;83649;-48
2024/03/17 04:02:50;;;;;;;;;;;9.30;84.90;;;;;;5004478;28;83135;-48
2024/03/17 04:05:16;;;;;;;;;;;9.30;84.90;;;;;;5000853;28;81980;-49
2024/03/17 04:07:42;;;;;;;;;;;9.30;84.80;;;;;;4997433;28;81798;-49
2024/03/17 04:10:08;;;;;;;;;;;9.30;84.80;;;;;;4997254;28;82001;-50
2024/03/17 04:12:34;;;;;;;;;;;9.30;84.80;;;;;;4995506;28;83563;-48
2024/03/17 04:15:00;;;;;;;;;;;9.30;84.70;;;;;;4997051;28;83261;-50
2024/03/17 04:17:25;;;;;;;;;;;9.30;84.80;;;;;;4998787;28;81224;-47
2024/03/17 04:19:51;;;;;;;;;;;9.30;84.80;;;;;;4998768;28;81945;-48
2024/03/17 04:22:18;;;;;;;;;;;9.20;84.80;;;;;;5003665;28;82545;-49
2024/03/17 04:24:44;;;;;;;;;;;9.30;84.80;;;;;;5002295;28;84417;-49
2024/03/17 04:27:09;;;;;;;;;;;9.30;84.80;;;;;;4997640;28;82411;-49
2024/03/17 04:29:35;;;;;;;;;;;9.20;84.80;;;;;;4996691;28;82028;-49
2024/03/17 04:32:00;;;;;;;;;;;9.20;84.80;;;;;;4996904;28;82175;-52
2024/03/17 04:34:27;;;;;;;;;;;9.20;84.80;;;;;;5004132;28;82426;-48
2024/03/17 04:36:53;;;;;;;;;;;9.20;84.80;;;;;;4995397;28;83440;-47
2024/03/17 04:39:22;;;;;;;;;;;9.20;84.70;;;;;;4992628;28;82140;-49
2024/03/17 04:41:47;;;;;;;;;;;9.20;84.70;;;;;;4998077;28;81481;-47
2024/03/17 04:44:13;;;;;;;;;;;9.20;84.70;;;;;;4991450;28;81912;-50
2024/03/17 04:46:39;;;;;;;;;;;9.20;84.60;;;;;;4998800;28;82393;-49
2024/03/17 04:49:04;;;;;;;;;;;9.20;84.70;;;;;;4994047;28;83840;-49
2024/03/17 04:51:33;;;;;;;;;;;9.10;84.70;;;;;;4997517;28;82835;-48
2024/03/17 04:53:59;;;;;;;;;;;9.20;84.70;;;;;;4995090;28;82372;-49
2024/03/17 04:56:24;;;;;;;;;;;9.10;84.60;;;;;;5004312;28;82019;-49
2024/03/17 04:58:50;;;;;;;;;;;9.10;84.50;;;;;;5000779;28;82264;-48
2024/03/17 05:01:15;;;;;;;;;;;9.10;84.60;;;;;;4997545;28;82630;-48
2024/03/17 05:03:41;;;;;;;;;;;9.10;84.60;;;;;;4996074;28;82018;-49
2024/03/17 05:06:06;;;;;;;;;;;9.10;85.20;;;;;;5000498;28;81204;-48
2024/03/17 05:08:34;;;;;;;;;;;9.10;84.70;;;;;;4996169;28;81823;-48
2024/03/17 05:11:00;;;;;;;;;;;9.10;84.70;;;;;;4998521;28;82966;-50
2024/03/17 05:13:29;;;;;;;;;;;9.10;84.70;;;;;;4995799;28;83644;-49
2024/03/17 05:15:55;;;;;;;;;;;9.10;84.70;;;;;;4998398;28;82192;-48
2024/03/17 05:18:22;;;;;;;;;;;9.10;84.70;;;;;;5002046;28;82564;-49
2024/03/17 05:20:56;;;;;;;;;;;9.00;84.60;;;;;;4996475;28;82602;-49
2024/03/17 05:23:22;;;;;;;;;;;9.00;84.70;;;;;;5003843;28;81900;-48
2024/03/17 05:25:53;;;;;;;;;;;9.10;85.10;;;;;;4998892;28;82911;-48
2024/03/17 05:28:19;;;;;;;;;;;9.00;84.70;;;;;;5003608;28;83516;-48
2024/03/17 05:30:45;;;;;;;;;;;9.00;84.80;;;;;;4998594;28;82969;-49
2024/03/17 05:33:10;;;;;;;;;;;9.00;84.70;;;;;;4997018;28;82571;-49
2024/03/17 05:35:36;;;;;;;;;;;9.00;84.70;;;;;;4998592;28;81879;-50
2024/03/17 05:38:02;;;;;;;;;;;9.00;84.80;;;;;;4998398;28;82718;-49
2024/03/17 05:40:27;;;;;;;;;;;9.00;84.80;;;;;;4997554;28;82417;-48
2024/03/17 05:42:53;;;;;;;;;;;9.00;84.80;;;;;;4999294;28;81945;-49
2024/03/17 05:45:18;;;;;;;;;;;9.00;84.80;;;;;;4993313;28;82857;-49
2024/03/17 05:47:44;;;;;;;;;;;8.90;84.80;;;;;;4995839;28;83770;-49
2024/03/17 05:50:09;;;;;;;;;;;8.90;84.80;;;;;;5000544;28;82060;-47
2024/03/17 05:52:35;;;;;;;;;;;9.00;84.80;;;;;;4998226;28;82527;-50
2024/03/17 05:55:01;;;;;;;;;;;9.00;84.70;;;;;;4996556;28;81553;-49
2024/03/17 05:57:28;;;;;;;;;;;8.90;84.70;;;;;;4992649;28;81974;-49
2024/03/17 05:59:53;;;;;;;;;;;8.90;84.60;;;;;;4997750;28;83396;-49
2024/03/17 06:02:19;;;;;;;;;;;9.00;84.80;;;;;;4995320;28;82959;-50
2024/03/17 06:04:44;;;;;;;;;;;8.90;84.70;;;;;;4993301;28;81902;-49
2024/03/17 06:07:10;;;;;;;;;;;8.90;84.80;;;;;;4999301;28;83246;-50
2024/03/17 06:09:35;;;;;;;;;;;8.90;84.80;;;;;;4997961;28;81924;-48
2024/03/17 06:12:01;;;;;;;;;;;8.90;84.80;;;;;;5001546;28;83202;-49
2024/03/17 06:14:26;;;;;;;;;;;8.90;84.80;;;;;;4992956;28;82085;-49
2024/03/17 06:16:52;;;;;;;;;;;9.00;84.80;;;;;;4998933;28;82146;-50
2024/03/17 06:19:17;;;;;;;;;;;8.90;84.70;;;;;;4996533;28;82302;-50
2024/03/17 06:21:43;;;;;;;;;;;8.90;84.60;;;;;;4993660;28;82030;-49
2024/03/17 06:24:09;;;;;;;;;;;8.90;84.70;;;;;;4997740;28;82889;-48
2024/03/17 06:26:35;;;;;;;;;;;8.90;84.70;;;;;;4999388;28;83446;-50
2024/03/17 06:29:01;;;;;;;;;;;8.90;84.70;;;;;;4998081;28;82683;-50
2024/03/17 06:31:26;;;;;;;;;;;8.90;84.60;;;;;;4995488;28;81948;-49
2024/03/17 06:33:52;;;;;;;;;;;8.90;84.70;;;;;;4998275;28;83274;-50
2024/03/17 06:36:18;;;;;;;;;;;8.90;84.60;;;;;;4999373;28;82356;-48
2024/03/17 06:38:43;;;;;;;;;;;8.90;84.70;;;;;;4993810;28;82256;-48
2024/03/17 06:41:14;;;;;;;;;;;8.90;84.80;;;;;;4997609;28;82087;-49
2024/03/17 06:43:41;;;;;;;;;;;8.90;84.70;;;;;;4999280;28;82914;-48
2024/03/17 06:46:07;;;;;;;;;;;8.90;84.80;;;;;;4990622;28;82882;-48
2024/03/17 06:48:33;;;;;;;;;;;8.90;84.80;;;;;;5002021;28;82700;-48
2024/03/17 06:50:59;;;;;;;;;;;8.90;84.80;;;;;;4997337;28;82866;-49
2024/03/17 06:53:26;;;;;;;;;;;8.90;84.90;;;;;;4993361;28;82902;-51
2024/03/17 06:55:54;;;;;;;;;;;8.90;84.90;;;;;;4997411;28;81915;-49
2024/03/17 06:58:22;;;;;;;;;;;8.90;84.90;;;;;;4998006;28;82318;-49
2024/03/17 07:00:55;;;;;;;;;;;9.00;84.80;;;;;;4997724;28;82011;-48
2024/03/17 07:03:22;;;;;;;;;;;9.00;84.80;;;;;;4994209;28;83443;-49
2024/03/17 07:05:55;;;;;;;;;;;9.00;84.90;;;;;;4996292;28;82546;-50
2024/03/17 07:08:20;;;;;;;;;;;9.00;84.80;;;;;;4998184;28;81285;-48
2024/03/17 07:11:05;;;;;;;;;;;8.90;84.80;;;;;;5002215;28;81905;-49
2024/03/17 07:13:37;;;;;;;;;;;8.90;84.80;;;;;;4995354;28;82315;-49
2024/03/17 07:16:05;;;;;;;;;;;8.90;84.70;;;;;;5000608;28;83117;-51
2024/03/17 07:18:31;;;;;;;;;;;9.00;84.80;;;;;;4999091;28;83738;-49
2024/03/17 07:20:58;;;;;;;;;;;8.90;84.80;;;;;;4997935;28;81941;-49
2024/03/17 07:23:24;;;;;;;;;;;9.00;84.90;;;;;;4999294;28;82729;-48
2024/03/17 07:25:56;;;;;;;;;;;9.00;84.90;;;;;;4996919;28;82318;-49
2024/03/17 07:28:22;;;;;;;;;;;9.00;84.90;;;;;;4998366;28;82038;-49
2024/03/17 07:30:49;;;;;;;;;;;9.00;84.90;;;;;;5001950;28;81991;-49
2024/03/17 07:33:14;;;;;;;;;;;8.90;84.90;;;;;;4999457;28;83149;-48
2024/03/17 07:35:46;;;;;;;;;;;9.00;85.00;;;;;;5001075;28;81888;-48
2024/03/17 07:38:12;;;;;;;;;;;9.00;85.00;;;;;;5005974;28;81839;-49
2024/03/17 07:40:37;;;;;;;;;;;9.00;85.00;;;;;;4999396;28;82957;-49
2024/03/17 07:43:03;;;;;;;;;;;9.00;85.00;;;;;;5002213;28;81964;-49
2024/03/17 07:45:29;;;;;;;;;;;9.00;85.00;;;;;;4999039;28;83014;-49
2024/03/17 07:47:55;;;;;;;;;;;9.00;85.10;;;;;;5001827;28;82069;-48
2024/03/17 07:50:21;;;;;;;;;;;9.00;85.20;;;;;;4997057;28;83426;-50
2024/03/17 07:52:46;;;;;;;;;;;8.90;85.10;;;;;;5000095;28;82623;-49
2024/03/17 07:55:12;;;;;;;;;;;9.00;85.20;;;;;;5000932;28;81882;-49
2024/03/17 07:57:38;;;;;;;;;;;9.00;85.20;;;;;;4998825;28;82921;-49
2024/03/17 08:00:09;;;;;;;;;;;9.00;85.20;;;;;;4996888;28;82670;-49
2024/03/17 08:02:35;;;;;;;;;;;9.00;85.20;;;;;;5000705;28;81883;-47
2024/03/17 08:05:00;;;;;;;;;;;8.90;85.20;;;;;;5004764;28;83365;-48
2024/03/17 08:07:26;;;;;;;;;;;9.00;85.20;;;;;;5002024;28;81998;-48
2024/03/17 08:09:51;;;;;;;;;;;9.00;85.20;;;;;;4997176;28;81952;-49
2024/03/17 08:12:17;;;;;;;;;;;9.00;85.30;;;;;;4993088;28;82522;-49
2024/03/17 08:14:43;;;;;;;;;;;9.00;85.30;;;;;;4999425;28;81961;-49
2024/03/17 08:17:09;;;;;;;;;;;9.00;85.40;;;;;;4996402;28;82191;-49
2024/03/17 08:19:35;;;;;;;;;;;9.00;85.40;;;;;;4995545;28;83518;-49
2024/03/17 08:22:00;;;;;;;;;;;9.00;85.40;;;;;;5000841;28;81905;-49
2024/03/17 08:24:26;;;;;;;;;;;9.00;85.50;;;;;;4997934;28;82531;-50
2024/03/17 08:26:52;;;;;;;;;;;9.00;85.40;;;;;;5001176;28;81767;-48
2024/03/17 08:29:17;;;;;;;;;;;9.00;85.40;;;;;;4998739;28;82863;-48
2024/03/17 08:31:45;;;;;;;;;;;9.00;85.50;;;;;;4997984;28;82702;-49
2024/03/17 08:34:10;;;;;;;;;;;9.00;85.40;;;;;;5006039;28;82134;-48
2024/03/17 08:36:36;;;;;;;;;;;9.00;85.40;;;;;;5000693;28;81790;-49
2024/03/17 08:39:02;;;;;;;;;;;9.10;85.30;;;;;;4999625;28;82551;-51
2024/03/17 08:41:29;;;;;;;;;;;9.00;85.30;;;;;;4999571;28;81993;-48
2024/03/17 08:43:55;;;;;;;;;;;9.10;85.40;;;;;;4998138;28;81879;-49
2024/03/17 08:46:20;;;;;;;;;;;9.00;85.40;;;;;;4998561;28;81310;-53
2024/03/17 08:48:47;;;;;;;;;;;9.00;85.50;;;;;;4983051;28;81955;-51
2024/03/17 08:51:13;;;;;;;;;;;9.00;85.50;;;;;;4980953;28;83511;-51
2024/03/17 08:53:39;;;;;;;;;;;9.00;85.50;;;;;;4976791;28;82906;-49
2024/03/17 08:56:06;;;;;;;;;;;9.00;85.60;;;;;;4981478;28;82338;-49
2024/03/17 08:58:32;;;;;;;;;;;9.10;85.60;;;;;;4977714;28;83574;-51
2024/03/17 09:00:57;;;;;;;;;;;9.10;85.60;;;;;;4976124;28;81953;-49
2024/03/17 09:03:24;;;;;;;;;;;9.00;85.60;;;;;;4978335;28;82329;-49
2024/03/17 09:05:50;;;;;;;;;;;9.10;85.60;;;;;;4980828;28;82801;-50
2024/03/17 09:08:17;;;;;;;;;;;9.10;85.80;;;;;;4973696;28;82862;-49
2024/03/17 09:10:43;;;;;;;;;;;9.10;85.80;;;;;;4975409;28;82651;-49
2024/03/17 09:13:16;;;;;;;;;;;9.10;85.90;;;;;;4979640;28;82375;-49
2024/03/17 09:15:56;;;;;;;;;;;9.10;85.80;;;;;;4980661;28;82471;-48
2024/03/17 09:18:22;;;;;;;;;;;9.10;85.80;;;;;;4975785;28;84523;-49
2024/03/17 09:20:55;;;;;;;;;;;9.10;85.90;;;;;;4976996;28;82186;-48
2024/03/17 09:23:21;;;;;;;;;;;9.10;86.00;;;;;;4984048;28;82702;-48
2024/03/17 09:25:54;;;;;;;;;;;9.10;86.10;;;;;;4978480;28;82594;-49
2024/03/17 09:28:20;;;;;;;;;;;9.10;86.10;;;;;;4978244;28;81826;-49
2024/03/17 09:30:49;;;;;;;;;;;9.10;86.10;;;;;;4976986;28;81755;-49
2024/03/17 09:33:15;;;;;;;;;;;9.20;86.00;;;;;;4974457;28;82798;-49
2024/03/17 09:35:40;;;;;;;;;;;9.20;86.10;;;;;;4980790;28;82017;-49
2024/03/17 09:38:06;;;;;;;;;;;9.20;86.10;;;;;;4978353;28;82421;-49
2024/03/17 09:40:31;;;;;;;;;;;9.20;86.20;;;;;;4975895;28;82007;-49
2024/03/17 09:42:58;;;;;;;;;;;9.20;86.20;;;;;;4979199;28;83514;-47
2024/03/17 09:45:24;;;;;;;;;;;9.20;86.20;;;;;;4979437;28;82051;-49
2024/03/17 09:47:50;;;;;;;;;;;9.20;86.40;;;;;;4979517;28;81961;-48
2024/03/17 09:50:18;;;;;;;;;;;9.20;86.40;;;;;;4975922;28;83590;-49
2024/03/17 09:52:45;;;;;;;;;;;9.20;86.50;;;;;;4978848;28;81881;-49
2024/03/17 09:55:15;;;;;;;;;;;9.20;86.50;;;;;;4976040;28;83004;-48
2024/03/17 09:57:40;;;;;;;;;;;9.20;86.40;;;;;;4977117;28;83927;-48
2024/03/17 10:00:13;;;;;;;;;;;9.20;86.40;;;;;;4976906;28;81220;-49
2024/03/17 10:02:57;;;;;;;;;;;9.30;86.50;;;;;;4981646;28;81872;-49
2024/03/17 10:05:23;;;;;;;;;;;9.20;86.50;;;;;;4977232;28;83464;-49
2024/03/17 10:07:49;;;;;;;;;;;9.30;86.70;;;;;;4978401;28;82908;-50
2024/03/17 10:10:18;;;;;;;;;;;9.30;86.70;;;;;;4977774;28;82829;-50
2024/03/17 10:12:44;;;;;;;;;;;9.30;86.70;;;;;;4978288;28;81968;-49
2024/03/17 10:15:12;;;;;;;;;;;9.30;86.60;;;;;;4974752;28;82484;-49
2024/03/17 10:17:38;;;;;;;;;;;9.30;86.80;;;;;;4976888;28;82456;-50
2024/03/17 10:20:25;;;;;;;;;;;9.30;86.90;;;;;;4977287;28;82061;-50
2024/03/17 10:22:58;;;;;;;;;;;9.30;86.80;;;;;;4977204;28;82897;-51
2024/03/17 10:25:23;;;;;;;;;;;9.30;86.80;;;;;;4978899;28;82762;-49
2024/03/17 10:27:49;;;;;;;;;;;9.30;87.00;;;;;;4980020;28;81962;-50
2024/03/17 10:30:18;;;;;;;;;;;9.30;86.90;;;;;;4976052;28;81973;-49
2024/03/17 10:32:44;;;;;;;;;;;9.30;87.00;;;;;;4980161;28;83494;-50
2024/03/17 10:35:29;;;;;;;;;;;9.30;87.10;;;;;;4977533;28;82689;-51
2024/03/17 10:37:59;;;;;;;;;;;9.30;87.10;;;;;;4977332;28;83737;-51
2024/03/17 10:40:25;;;;;;;;;;;9.30;87.10;;;;;;4979016;28;83405;-49
2024/03/17 10:42:51;;;;;;;;;;;9.30;87.20;;;;;;4983622;28;82079;-49
2024/03/17 10:45:17;;;;;;;;;;;9.30;87.20;;;;;;4981299;28;81868;-53
2024/03/17 10:47:49;;;;;;;;;;;9.30;87.20;;;;;;4978033;28;81912;-51
2024/03/17 10:50:21;;;;;;;;;;;9.30;87.20;;;;;;4980842;28;82009;-49
2024/03/17 10:52:51;;;;;;;;;;;9.30;87.10;;;;;;4981973;28;82339;-49
2024/03/17 10:55:22;;;;;;;;;;;9.30;87.20;;;;;;4982473;28;82120;-50
2024/03/17 10:57:48;;;;;;;;;;;9.40;87.30;;;;;;4979362;28;84610;-49
2024/03/17 11:00:17;;;;;;;;;;;9.40;87.20;;;;;;4980472;28;82119;-47
2024/03/17 11:02:44;;;;;;;;;;;9.40;87.20;;;;;;4982733;28;82906;-50
2024/03/17 11:05:13;;;;;;;;;;;9.40;87.20;;;;;;4978599;28;83654;-52
2024/03/17 11:07:45;;;;;;;;;;;9.40;87.20;;;;;;4976958;28;81997;-50
2024/03/17 11:10:14;;;;;;;;;;;9.40;87.20;;;;;;4979834;28;83185;-50
2024/03/17 11:12:44;;;;;;;;;;;9.40;87.20;;;;;;4982649;28;82724;-50
2024/03/17 11:15:19;;;;;;;;;;;9.40;87.20;;;;;;4978986;28;81476;-51
2024/03/17 11:17:48;;;;;;;;;;;9.40;87.20;;;;;;4982432;28;81924;-52
2024/03/17 11:20:29;;;;;;;;;;;9.40;87.30;;;;;;4977224;28;82072;-51
2024/03/17 11:22:58;;;;;;;;;;;9.40;87.20;;;;;;4979379;28;82942;-50
2024/03/17 11:25:27;;;;;;;;;;;9.50;87.30;;;;;;4980668;28;82512;-50
2024/03/17 11:27:52;;;;;;;;;;;9.50;87.10;;;;;;4981300;28;81904;-50
2024/03/17 11:30:36;;;;;;;;;;;9.50;87.10;;;;;;4979878;28;81974;-51
2024/03/17 11:33:03;;;;;;;;;;;9.50;87.00;;;;;;4984089;28;82347;-50
2024/03/17 11:35:29;;;;;;;;;;;9.60;87.00;;;;;;4980159;28;81907;-51
2024/03/17 11:37:55;;;;;;;;;;;9.60;87.00;;;;;;4986258;28;81868;-51
2024/03/17 11:40:27;;;;;;;;;;;9.60;87.00;;;;;;4980868;28;81264;-50
2024/03/17 11:43:02;;;;;;;;;;;9.60;86.80;;;;;;4980691;28;81983;-51
2024/03/17 11:45:28;;;;;;;;;;;9.60;86.80;;;;;;4979840;28;82550;-50
2024/03/17 11:47:53;;;;;;;;;;;9.60;86.90;;;;;;4977611;28;82953;-49
2024/03/17 11:50:19;;;;;;;;;;;9.70;86.80;;;;;;4977172;28;82862;-51
2024/03/17 11:52:45;;;;;;;;;;;9.70;86.80;;;;;;4977510;28;82402;-50
2024/03/17 11:55:18;;;;;;;;;;;9.70;86.80;;;;;;4980432;28;81976;-53
2024/03/17 11:57:45;;;;;;;;;;;9.70;86.60;;;;;;4977747;28;82930;-51
2024/03/17 12:00:24;;;;;;;;;;;9.80;86.50;;;;;;4985262;28;83408;-50
2024/03/17 12:02:50;;;;;;;;;;;9.70;86.50;;;;;;4979093;28;82739;-49
2024/03/17 12:05:15;;;;;;;;;;;9.70;86.50;;;;;;4984381;28;81759;-50
2024/03/17 12:07:44;;;;;;;;;;;9.70;86.40;;;;;;4977273;28;82080;-49
2024/03/17 12:10:16;;;;;;;;;;;9.70;86.60;;;;;;4973964;28;81853;-50
2024/03/17 12:12:46;;;;;;;;;;;9.80;86.60;;;;;;4978470;28;83437;-50
2024/03/17 12:15:19;;;;;;;;;;;9.80;86.60;;;;;;4974972;28;81942;-49
2024/03/17 12:17:45;;;;;;;;;;;9.80;86.60;;;;;;4979997;28;82575;-48
2024/03/17 12:20:17;;;;;;;;;;;9.80;86.40;;;;;;4978008;28;83579;-49
2024/03/17 12:22:43;;;;;;;;;;;9.80;86.50;;;;;;4983182;28;82928;-51
2024/03/17 12:25:15;;;;;;;;;;;9.80;86.50;;;;;;4978694;28;83786;-51
2024/03/17 12:27:43;;;;;;;;;;;9.90;86.50;;;;;;4977206;28;82228;-51
2024/03/17 12:30:10;;;;;;;;;;;9.90;86.50;;;;;;4978223;28;82117;-49
2024/03/17 12:32:36;;;;;;;;;;;9.90;86.50;;;;;;4979451;28;82678;-51
2024/03/17 12:35:03;;;;;;;;;;;9.90;86.40;;;;;;4980582;28;81907;-50
2024/03/17 12:37:33;;;;;;;;;;;9.90;86.50;;;;;;4977683;28;82993;-49
2024/03/17 12:40:03;;;;;;;;;;;9.90;86.60;;;;;;4978740;28;83385;-50
2024/03/17 12:42:29;;;;;;;;;;;9.90;86.40;;;;;;4979134;28;82062;-48
2024/03/17 12:45:09;;;;;;;;;;;9.90;86.50;;;;;;4980212;28;81975;-50
2024/03/17 12:47:35;;;;;;;;;;;9.90;86.50;;;;;;4980246;28;82031;-50
2024/03/17 12:50:01;;;;;;;;;;;9.90;86.50;;;;;;4975041;28;81974;-52
2024/03/17 12:52:30;;;;;;;;;;;10.00;86.70;;;;;;4979339;28;83374;-50
2024/03/17 13:00:35;;;;;;;;;;;10.00;86.60;;;;;;4980143;28;81947;-51
2024/03/17 13:03:04;;;;;;;;;;;10.00;86.80;;;;;;4978459;28;83618;-50
2024/03/17 13:05:31;;;;;;;;;;;10.00;86.70;;;;;;4982237;28;82540;-49
2024/03/17 13:07:57;;;;;;;;;;;10.00;86.70;;;;;;4977848;28;83449;-49
2024/03/17 13:10:24;;;;;;;;;;;10.00;86.70;;;;;;4976714;28;83155;-50
2024/03/17 13:12:57;;;;;;;;;;;10.00;86.80;;;;;;4982722;28;81906;-49
2024/03/17 13:15:23;;;;;;;;;;;10.00;86.70;;;;;;4976479;28;81841;-51
2024/03/17 13:17:49;;;;;;;;;;;10.10;86.80;;;;;;4984270;28;82865;-52
2024/03/17 13:20:16;;;;;;;;;;;10.00;86.70;;;;;;4979201;28;82073;-50
2024/03/17 13:22:42;;;;;;;;;;;10.10;86.70;;;;;;4977336;28;81968;-50
2024/03/17 13:25:09;;;;;;;;;;;10.10;86.60;;;;;;4976792;28;82810;-52
2024/03/17 13:27:35;;;;;;;;;;;10.10;86.80;;;;;;4978020;28;83929;-50
2024/03/17 13:30:00;;;;;;;;;;;10.10;86.80;;;;;;4980273;28;82464;-52
2024/03/17 13:32:26;;;;;;;;;;;10.10;86.80;;;;;;4975610;28;82432;-48
2024/03/17 13:34:52;;;;;;;;;;;10.10;86.80;;;;;;4976527;28;81985;-49
2024/03/17 13:37:17;;;;;;;;;;;10.10;86.80;;;;;;4975811;28;81925;-52
2024/03/17 13:39:43;;;;;;;;;;;10.10;86.70;;;;;;4974266;28;82614;-50
2024/03/17 13:42:09;;;;;;;;;;;10.10;86.80;;;;;;4980733;28;82839;-51
2024/03/17 13:44:35;;;;;;;;;;;10.20;86.90;;;;;;4979430;28;82032;-50
2024/03/17 13:47:03;;;;;;;;;;;10.10;86.80;;;;;;4978345;28;82927;-49
2024/03/17 13:49:29;;;;;;;;;;;10.20;86.80;;;;;;4981514;28;82189;-50
2024/03/17 13:51:54;;;;;;;;;;;10.20;86.70;;;;;;4974584;28;82990;-48
2024/03/17 13:54:23;;;;;;;;;;;10.20;86.80;;;;;;4979502;28;82031;-50
2024/03/17 13:56:49;;;;;;;;;;;10.20;87.00;;;;;;4979188;28;81822;-50
2024/03/17 13:59:15;;;;;;;;;;;10.20;86.80;;;;;;4976813;28;82538;-51
2024/03/17 14:01:43;;;;;;;;;;;10.20;86.80;;;;;;4981965;28;81979;-49
2024/03/17 14:04:15;;;;;;;;;;;10.20;86.90;;;;;;4977009;28;82125;-50
2024/03/17 14:06:41;;;;;;;;;;;10.20;86.80;;;;;;4983624;28;81928;-48
2024/03/17 14:09:10;;;;;;;;;;;10.30;86.70;;;;;;4975533;28;81354;-51
2024/03/17 14:11:36;;;;;;;;;;;10.30;86.60;;;;;;4977994;28;82853;-51
2024/03/17 14:14:02;;;;;;;;;;;10.30;86.70;;;;;;4978743;28;81935;-48
2024/03/17 14:16:31;;;;;;;;;;;10.30;86.70;;;;;;4977357;28;82945;-50
2024/03/17 14:18:57;;;;;;;;;;;10.30;86.50;;;;;;4976434;28;82061;-49
2024/03/17 14:21:22;;;;;;;;;;;10.30;86.50;;;;;;4979195;28;81995;-49
2024/03/17 14:23:48;;;;;;;;;;;10.30;86.70;;;;;;4978516;28;81912;-48
2024/03/17 14:26:15;;;;;;;;;;;10.30;86.70;;;;;;4978156;28;82638;-48
2024/03/17 14:28:41;;;;;;;;;;;10.30;86.80;;;;;;4977415;28;81970;-49
2024/03/17 14:31:06;;;;;;;;;;;10.30;86.90;;;;;;4977897;28;83400;-49
2024/03/17 14:33:32;;;;;;;;;;;10.30;86.80;;;;;;4978987;28;81618;-55